PWSweather.com
Personal Weather Stations
Station Observations
KORBANKS3
Satellite Ii, Banks, OR 97106

Satellite IiBanks, OR 97106

Lat: 45.627667, Lon: -123.138417

Elevation: 432

Station Type: LaCrosse WS-2316

High Low Average
Temperature 38.1°F3.4°C 34.3°F1.3°C 35.7°F2.1°C
Dew Point 35.1°F1.7°C -100000.0°F-55573.3°C -498.8°F-294.9°C
Winds 14.0 mph 22.5 kmh Calm Calm Calm ESECalm ESE
Wind Gusts 14.0 mph22.5 kmh -- --
Humidity 92% 0% 90%
Pressure 29.96 in1014.6 mb 29.81 in1009.5 mb -
Precipitation 0.14 in3.6 mm - -
Hour Temp Dew Point Humidity Winds Wind Gusts Pressure Precip Precip Rate Daily Precip Total
12:00 AM 34.8°F1.6°C 32.5°F0.3°C 91% Calm Calm -- 29.96 in1014.6 mb 0.00 in0.0 mm 0.00 in/hr0.0 mm/hr 0.02 in0.5 mm
12:05 AM 34.8°F1.6°C 32.5°F0.3°C 91% Calm Calm -- 29.96 in1014.6 mb 0.00 in0.0 mm 0.00 in/hr0.0 mm/hr 0.00 in0.0 mm
12:15 AM 34.8°F1.6°C 32.5°F0.3°C 91% Calm Calm -- 29.96 in1014.6 mb 0.00 in0.0 mm 0.00 in/hr0.0 mm/hr 0.00 in0.0 mm
12:20 AM 34.8°F1.6°C 32.5°F0.3°C 91% Calm Calm -- 29.96 in1014.6 mb 0.00 in0.0 mm 0.00 in/hr0.0 mm/hr 0.00 in0.0 mm
12:25 AM 34.8°F1.6°C 32.5°F0.3°C 91% Calm Calm -- 29.96 in1014.6 mb 0.00 in0.0 mm 0.00 in/hr0.0 mm/hr 0.00 in0.0 mm
12:30 AM 34.8°F1.6°C 32.5°F0.3°C 91% Calm Calm -- 29.96 in1014.6 mb 0.00 in0.0 mm 0.00 in/hr0.0 mm/hr 0.00 in0.0 mm
12:35 AM 34.8°F1.6°C 32.5°F0.3°C 91% Calm Calm -- 29.96 in1014.6 mb 0.00 in0.0 mm 0.00 in/hr0.0 mm/hr 0.00 in0.0 mm
12:40 AM 34.8°F1.6°C 32.5°F0.3°C 91% Calm Calm -- 29.96 in1014.6 mb 0.00 in0.0 mm 0.00 in/hr0.0 mm/hr 0.00 in0.0 mm
12:45 AM 34.8°F1.6°C 32.5°F0.3°C 91% Calm Calm -- 29.96 in1014.6 mb 0.00 in0.0 mm 0.00 in/hr0.0 mm/hr 0.00 in0.0 mm
12:50 AM 34.8°F1.6°C 32.5°F0.3°C 91% Calm Calm -- 29.95 in1014.2 mb 0.00 in0.0 mm 0.00 in/hr0.0 mm/hr 0.00 in0.0 mm
12:55 AM 34.8°F1.6°C 32.5°F0.3°C 91% Calm Calm -- 29.95 in1014.2 mb 0.00 in0.0 mm 0.00 in/hr0.0 mm/hr 0.00 in0.0 mm
01:00 AM 34.8°F1.6°C 32.5°F0.3°C 91% Calm Calm -- 29.95 in1014.2 mb 0.00 in0.0 mm 0.00 in/hr0.0 mm/hr 0.00 in0.0 mm
01:05 AM 34.8°F1.6°C 32.5°F0.3°C 91% Calm Calm -- 29.95 in1014.2 mb 0.00 in0.0 mm 0.00 in/hr0.0 mm/hr 0.00 in0.0 mm
01:10 AM 34.8°F1.6°C 32.5°F0.3°C 91% Calm Calm -- 29.95 in1014.2 mb 0.00 in0.0 mm 0.00 in/hr0.0 mm/hr 0.00 in0.0 mm
01:15 AM 34.8°F1.6°C 32.5°F0.3°C 91% Calm Calm -- 29.94 in1013.9 mb 0.00 in0.0 mm 0.00 in/hr0.0 mm/hr 0.00 in0.0 mm
01:20 AM 34.8°F1.6°C 32.5°F0.3°C 91% Calm Calm -- 29.95 in1014.2 mb 0.00 in0.0 mm 0.00 in/hr0.0 mm/hr 0.00 in0.0 mm
01:25 AM 34.7°F1.5°C 32.3°F0.2°C 91% Calm Calm -- 29.95 in1014.2 mb 0.00 in0.0 mm 0.00 in/hr0.0 mm/hr 0.00 in0.0 mm
01:30 AM 34.7°F1.5°C 32.3°F0.2°C 91% Calm Calm -- 29.94 in1013.9 mb 0.00 in0.0 mm 0.00 in/hr0.0 mm/hr 0.00 in0.0 mm
01:35 AM 34.8°F1.6°C 32.5°F0.3°C 91% Calm Calm -- 29.94 in1013.9 mb 0.00 in0.0 mm 0.00 in/hr0.0 mm/hr 0.00 in0.0 mm
01:40 AM 34.8°F1.6°C 32.5°F0.3°C 91% Calm Calm -- 29.93 in1013.5 mb 0.00 in0.0 mm 0.00 in/hr0.0 mm/hr 0.00 in0.0 mm
01:45 AM 34.8°F1.6°C 32.7°F0.4°C 92% Calm Calm -- 29.93 in1013.5 mb 0.00 in0.0 mm 0.00 in/hr0.0 mm/hr 0.00 in0.0 mm
01:50 AM 35.2°F1.8°C 33.1°F0.6°C 92% Calm Calm -- 29.93 in1013.5 mb 0.00 in0.0 mm 0.00 in/hr0.0 mm/hr 0.00 in0.0 mm
01:55 AM 35.2°F1.8°C 33.1°F0.6°C 92% Calm Calm -- 29.93 in1013.5 mb 0.00 in0.0 mm 0.00 in/hr0.0 mm/hr 0.00 in0.0 mm
02:00 AM 35.2°F1.8°C 33.1°F0.6°C 92% Calm Calm -- 29.93 in1013.5 mb 0.00 in0.0 mm 0.00 in/hr0.0 mm/hr 0.00 in0.0 mm
02:05 AM 35.2°F1.8°C 33.1°F0.6°C 92% Calm Calm -- 29.93 in1013.5 mb 0.00 in0.0 mm 0.00 in/hr0.0 mm/hr 0.00 in0.0 mm
02:10 AM 35.2°F1.8°C 33.1°F0.6°C 92% Calm Calm -- 29.93 in1013.5 mb 0.00 in0.0 mm 0.00 in/hr0.0 mm/hr 0.00 in0.0 mm
02:15 AM 35.2°F1.8°C 33.1°F0.6°C 92% Calm Calm -- 29.93 in1013.5 mb 0.00 in0.0 mm 0.00 in/hr0.0 mm/hr 0.00 in0.0 mm
02:20 AM 35.2°F1.8°C 33.1°F0.6°C 92% Calm Calm -- 29.93 in1013.5 mb 0.00 in0.0 mm 0.00 in/hr0.0 mm/hr 0.00 in0.0 mm
02:25 AM 35.2°F1.8°C 33.1°F0.6°C 92% Calm Calm -- 29.93 in1013.5 mb 0.00 in0.0 mm 0.00 in/hr0.0 mm/hr 0.00 in0.0 mm
02:30 AM 35.2°F1.8°C 33.1°F0.6°C 92% Calm Calm -- 29.93 in1013.5 mb 0.00 in0.0 mm 0.00 in/hr0.0 mm/hr 0.00 in0.0 mm
02:35 AM 35.2°F1.8°C 33.1°F0.6°C 92% Calm Calm -- 29.94 in1013.9 mb 0.00 in0.0 mm 0.00 in/hr0.0 mm/hr 0.00 in0.0 mm
02:40 AM 35.2°F1.8°C 33.1°F0.6°C 92% Calm Calm -- 29.93 in1013.5 mb 0.00 in0.0 mm 0.00 in/hr0.0 mm/hr 0.00 in0.0 mm
02:45 AM 35.2°F1.8°C 33.1°F0.6°C 92% Calm Calm -- 29.93 in1013.5 mb 0.00 in0.0 mm 0.00 in/hr0.0 mm/hr 0.00 in0.0 mm
02:50 AM 35.2°F1.8°C 33.1°F0.6°C 92% Calm Calm -- 29.92 in1013.2 mb 0.00 in0.0 mm 0.00 in/hr0.0 mm/hr 0.00 in0.0 mm
02:55 AM 35.2°F1.8°C 33.1°F0.6°C 92% Calm Calm -- 29.92 in1013.2 mb 0.00 in0.0 mm 0.00 in/hr0.0 mm/hr 0.00 in0.0 mm
03:00 AM 35.2°F1.8°C 33.1°F0.6°C 92% Calm Calm -- 29.92 in1013.2 mb 0.00 in0.0 mm 0.00 in/hr0.0 mm/hr 0.00 in0.0 mm
03:05 AM 35.2°F1.8°C 33.1°F0.6°C 92% Calm Calm -- 29.92 in1013.2 mb 0.00 in0.0 mm 0.00 in/hr0.0 mm/hr 0.00 in0.0 mm
03:10 AM 34.8°F1.6°C 32.7°F0.4°C 92% Calm Calm -- 29.91 in1012.9 mb 0.00 in0.0 mm 0.00 in/hr0.0 mm/hr 0.00 in0.0 mm
03:15 AM 34.8°F1.6°C 32.7°F0.4°C 92% Calm Calm -- 29.91 in1012.9 mb 0.00 in0.0 mm 0.00 in/hr0.0 mm/hr 0.00 in0.0 mm
03:20 AM 34.8°F1.6°C 32.7°F0.4°C 92% Calm Calm -- 29.92 in1013.2 mb 0.00 in0.0 mm 0.00 in/hr0.0 mm/hr 0.00 in0.0 mm
03:25 AM 34.7°F1.5°C 32.6°F0.3°C 92% Calm Calm -- 29.92 in1013.2 mb 0.00 in0.0 mm 0.00 in/hr0.0 mm/hr 0.00 in0.0 mm
03:30 AM 34.7°F1.5°C 32.6°F0.3°C 92% Calm Calm -- 29.91 in1012.9 mb 0.00 in0.0 mm 0.00 in/hr0.0 mm/hr 0.00 in0.0 mm
03:40 AM 34.7°F1.5°C 32.6°F0.3°C 92% Calm Calm -- 29.90 in1012.5 mb 0.00 in0.0 mm 0.00 in/hr0.0 mm/hr 0.00 in0.0 mm
03:45 AM 34.7°F1.5°C 32.6°F0.3°C 92% Calm Calm -- 29.90 in1012.5 mb 0.00 in0.0 mm 0.00 in/hr0.0 mm/hr 0.00 in0.0 mm
03:50 AM 34.5°F1.4°C 32.4°F0.2°C 92% Calm Calm -- 29.90 in1012.5 mb 0.00 in0.0 mm 0.00 in/hr0.0 mm/hr 0.00 in0.0 mm
03:55 AM 34.5°F1.4°C 32.4°F0.2°C 92% Calm Calm -- 29.89 in1012.2 mb 0.00 in0.0 mm 0.00 in/hr0.0 mm/hr 0.00 in0.0 mm
04:00 AM 34.5°F1.4°C 32.4°F0.2°C 92% 1.0 mph E1.6 kmh E 1.0 mph1.6 kmh 29.89 in1012.2 mb 0.00 in0.0 mm 0.00 in/hr0.0 mm/hr 0.00 in0.0 mm
04:05 AM 34.5°F1.4°C 32.4°F0.2°C 92% Calm Calm -- 29.89 in1012.2 mb 0.00 in0.0 mm 0.00 in/hr0.0 mm/hr 0.00 in0.0 mm
04:10 AM 34.5°F1.4°C -100000.0°F-55573.3°C 0% Calm Calm -- 29.89 in1012.2 mb 0.00 in0.0 mm 0.00 in/hr0.0 mm/hr 0.00 in0.0 mm
04:15 AM 34.5°F1.4°C 32.4°F0.2°C 92% Calm Calm -- 29.89 in1012.2 mb 0.00 in0.0 mm 0.00 in/hr0.0 mm/hr 0.00 in0.0 mm
04:20 AM 34.5°F1.4°C 32.4°F0.2°C 92% Calm Calm -- 29.88 in1011.9 mb 0.00 in0.0 mm 0.00 in/hr0.0 mm/hr 0.00 in0.0 mm
04:25 AM 34.3°F1.3°C 31.9°F-0.1°C 91% Calm Calm -- 29.88 in1011.9 mb 0.00 in0.0 mm 0.00 in/hr0.0 mm/hr 0.00 in0.0 mm
04:30 AM 34.5°F1.4°C 32.1°F0.1°C 91% Calm Calm -- 29.89 in1012.2 mb 0.00 in0.0 mm 0.00 in/hr0.0 mm/hr 0.00 in0.0 mm
04:35 AM 34.5°F1.4°C 32.4°F0.2°C 92% Calm Calm -- 29.88 in1011.9 mb 0.00 in0.0 mm 0.00 in/hr0.0 mm/hr 0.00 in0.0 mm
04:40 AM 34.5°F1.4°C 32.4°F0.2°C 92% Calm Calm -- 29.88 in1011.9 mb 0.00 in0.0 mm 0.00 in/hr0.0 mm/hr 0.00 in0.0 mm
04:45 AM 34.5°F1.4°C 32.4°F0.2°C 92% Calm Calm -- 29.88 in1011.9 mb 0.00 in0.0 mm 0.00 in/hr0.0 mm/hr 0.00 in0.0 mm
04:50 AM 34.5°F1.4°C 32.4°F0.2°C 92% Calm Calm -- 29.88 in1011.9 mb 0.00 in0.0 mm 0.00 in/hr0.0 mm/hr 0.00 in0.0 mm
04:55 AM 34.5°F1.4°C 32.4°F0.2°C 92% Calm Calm -- 29.88 in1011.9 mb 0.00 in0.0 mm 0.00 in/hr0.0 mm/hr 0.00 in0.0 mm
05:00 AM 34.5°F1.4°C 32.4°F0.2°C 92% Calm Calm -- 29.88 in1011.9 mb 0.00 in0.0 mm 0.00 in/hr0.0 mm/hr 0.00 in0.0 mm
05:05 AM 34.7°F1.5°C 32.6°F0.3°C 92% Calm Calm -- 29.87 in1011.5 mb 0.00 in0.0 mm 0.00 in/hr0.0 mm/hr 0.00 in0.0 mm
05:10 AM 34.7°F1.5°C 32.6°F0.3°C 92% Calm Calm -- 29.87 in1011.5 mb 0.00 in0.0 mm 0.00 in/hr0.0 mm/hr 0.00 in0.0 mm
05:15 AM 34.5°F1.4°C 32.4°F0.2°C 92% Calm Calm -- 29.87 in1011.5 mb 0.00 in0.0 mm 0.00 in/hr0.0 mm/hr 0.00 in0.0 mm
05:20 AM 34.5°F1.4°C 32.4°F0.2°C 92% Calm Calm -- 29.87 in1011.5 mb 0.00 in0.0 mm 0.00 in/hr0.0 mm/hr 0.00 in0.0 mm
05:25 AM 34.5°F1.4°C 32.4°F0.2°C 92% Calm Calm -- 29.86 in1011.2 mb 0.00 in0.0 mm 0.00 in/hr0.0 mm/hr 0.00 in0.0 mm
05:30 AM 34.5°F1.4°C 32.4°F0.2°C 92% Calm Calm -- 29.87 in1011.5 mb 0.00 in0.0 mm 0.00 in/hr0.0 mm/hr 0.00 in0.0 mm
05:35 AM 34.5°F1.4°C 32.4°F0.2°C 92% Calm Calm -- 29.87 in1011.5 mb 0.00 in0.0 mm 0.00 in/hr0.0 mm/hr 0.00 in0.0 mm
05:40 AM 34.7°F1.5°C 32.6°F0.3°C 92% Calm Calm -- 29.87 in1011.5 mb 0.00 in0.0 mm 0.00 in/hr0.0 mm/hr 0.00 in0.0 mm
05:45 AM 34.7°F1.5°C 32.6°F0.3°C 92% Calm Calm -- 29.85 in1010.8 mb 0.00 in0.0 mm 0.00 in/hr0.0 mm/hr 0.00 in0.0 mm
05:50 AM 34.7°F1.5°C 32.6°F0.3°C 92% Calm Calm -- 29.85 in1010.8 mb 0.00 in0.0 mm 0.00 in/hr0.0 mm/hr 0.00 in0.0 mm
05:55 AM 34.5°F1.4°C 32.4°F0.2°C 92% Calm Calm -- 29.85 in1010.8 mb 0.00 in0.0 mm 0.00 in/hr0.0 mm/hr 0.00 in0.0 mm
06:00 AM 34.5°F1.4°C 32.4°F0.2°C 92% Calm Calm -- 29.85 in1010.8 mb 0.00 in0.0 mm 0.00 in/hr0.0 mm/hr 0.00 in0.0 mm
06:05 AM 34.5°F1.4°C 32.4°F0.2°C 92% Calm Calm -- 29.85 in1010.8 mb 0.00 in0.0 mm 0.00 in/hr0.0 mm/hr 0.00 in0.0 mm
06:10 AM 34.5°F1.4°C 32.4°F0.2°C 92% Calm Calm -- 29.84 in1010.5 mb 0.00 in0.0 mm 0.00 in/hr0.0 mm/hr 0.00 in0.0 mm
06:15 AM 34.5°F1.4°C 32.4°F0.2°C 92% Calm Calm -- 29.85 in1010.8 mb 0.00 in0.0 mm 0.00 in/hr0.0 mm/hr 0.00 in0.0 mm
06:20 AM 34.5°F1.4°C 32.4°F0.2°C 92% Calm Calm -- 29.85 in1010.8 mb 0.00 in0.0 mm 0.00 in/hr0.0 mm/hr 0.00 in0.0 mm
06:25 AM 34.5°F1.4°C 32.4°F0.2°C 92% Calm Calm -- 29.85 in1010.8 mb 0.00 in0.0 mm 0.00 in/hr0.0 mm/hr 0.00 in0.0 mm
06:30 AM 34.7°F1.5°C 32.6°F0.3°C 92% Calm Calm -- 29.85 in1010.8 mb 0.00 in0.0 mm 0.00 in/hr0.0 mm/hr 0.00 in0.0 mm
06:36 AM 34.7°F1.5°C 32.6°F0.3°C 92% Calm Calm -- 29.85 in1010.8 mb 0.00 in0.0 mm 0.00 in/hr0.0 mm/hr 0.00 in0.0 mm
06:40 AM 34.7°F1.5°C 32.6°F0.3°C 92% Calm Calm -- 29.85 in1010.8 mb 0.00 in0.0 mm 0.00 in/hr0.0 mm/hr 0.00 in0.0 mm
06:45 AM 34.7°F1.5°C 32.6°F0.3°C 92% Calm Calm -- 29.84 in1010.5 mb 0.00 in0.0 mm 0.00 in/hr0.0 mm/hr 0.00 in0.0 mm
06:50 AM 34.7°F1.5°C 32.6°F0.3°C 92% Calm Calm -- 29.84 in1010.5 mb 0.00 in0.0 mm 0.00 in/hr0.0 mm/hr 0.00 in0.0 mm
06:55 AM 34.7°F1.5°C 32.6°F0.3°C 92% Calm Calm -- 29.84 in1010.5 mb 0.00 in0.0 mm 0.00 in/hr0.0 mm/hr 0.00 in0.0 mm
07:00 AM 34.7°F1.5°C 32.6°F0.3°C 92% Calm Calm -- 29.84 in1010.5 mb 0.00 in0.0 mm 0.00 in/hr0.0 mm/hr 0.00 in0.0 mm
07:05 AM 34.7°F1.5°C 32.6°F0.3°C 92% Calm Calm -- 29.84 in1010.5 mb 0.00 in0.0 mm 0.00 in/hr0.0 mm/hr 0.00 in0.0 mm
07:10 AM 34.7°F1.5°C 32.6°F0.3°C 92% 14.0 mph NNW22.5 kmh NNW 14.0 mph22.5 kmh 29.83 in1010.2 mb 0.00 in0.0 mm 0.00 in/hr0.0 mm/hr 0.00 in0.0 mm
07:15 AM 34.7°F1.5°C 32.6°F0.3°C 92% Calm Calm -- 29.83 in1010.2 mb 0.00 in0.0 mm 0.00 in/hr0.0 mm/hr 0.00 in0.0 mm
07:20 AM 34.8°F1.6°C 32.7°F0.4°C 92% Calm Calm -- 29.83 in1010.2 mb 0.00 in0.0 mm 0.00 in/hr0.0 mm/hr 0.00 in0.0 mm
07:25 AM 34.8°F1.6°C 32.7°F0.4°C 92% Calm Calm -- 29.83 in1010.2 mb 0.00 in0.0 mm 0.00 in/hr0.0 mm/hr 0.00 in0.0 mm
07:30 AM 34.8°F1.6°C 32.7°F0.4°C 92% 14.0 mph NNW22.5 kmh NNW 14.0 mph22.5 kmh 29.84 in1010.5 mb 0.00 in0.0 mm 0.00 in/hr0.0 mm/hr 0.00 in0.0 mm
07:35 AM 34.8°F1.6°C 32.7°F0.4°C 92% Calm Calm -- 29.84 in1010.5 mb 0.00 in0.0 mm 0.00 in/hr0.0 mm/hr 0.00 in0.0 mm
07:40 AM 34.8°F1.6°C 32.7°F0.4°C 92% Calm Calm -- 29.83 in1010.2 mb 0.00 in0.0 mm 0.00 in/hr0.0 mm/hr 0.00 in0.0 mm
07:45 AM 34.8°F1.6°C 32.7°F0.4°C 92% Calm Calm -- 29.83 in1010.2 mb 0.00 in0.0 mm 0.00 in/hr0.0 mm/hr 0.00 in0.0 mm
07:50 AM 34.8°F1.6°C 32.7°F0.4°C 92% Calm Calm -- 29.83 in1010.2 mb 0.00 in0.0 mm 0.00 in/hr0.0 mm/hr 0.00 in0.0 mm
07:55 AM 34.8°F1.6°C 32.7°F0.4°C 92% 14.0 mph NNW22.5 kmh NNW 14.0 mph22.5 kmh 29.83 in1010.2 mb 0.00 in0.0 mm 0.00 in/hr0.0 mm/hr 0.00 in0.0 mm
08:00 AM 34.8°F1.6°C 32.7°F0.4°C 92% Calm Calm -- 29.83 in1010.2 mb 0.00 in0.0 mm 0.00 in/hr0.0 mm/hr 0.00 in0.0 mm
08:05 AM 34.8°F1.6°C 32.7°F0.4°C 92% Calm Calm -- 29.83 in1010.2 mb 0.00 in0.0 mm 0.00 in/hr0.0 mm/hr 0.00 in0.0 mm
08:10 AM 34.8°F1.6°C 32.7°F0.4°C 92% Calm Calm -- 29.83 in1010.2 mb 0.00 in0.0 mm 0.00 in/hr0.0 mm/hr 0.00 in0.0 mm
08:15 AM 34.8°F1.6°C 32.7°F0.4°C 92% Calm Calm -- 29.84 in1010.5 mb 0.00 in0.0 mm 0.00 in/hr0.0 mm/hr 0.00 in0.0 mm
08:20 AM 34.8°F1.6°C 32.7°F0.4°C 92% Calm Calm -- 29.84 in1010.5 mb 0.00 in0.0 mm 0.00 in/hr0.0 mm/hr 0.00 in0.0 mm
08:25 AM 34.8°F1.6°C 32.7°F0.4°C 92% Calm Calm -- 29.84 in1010.5 mb 0.00 in0.0 mm 0.00 in/hr0.0 mm/hr 0.00 in0.0 mm
08:30 AM 34.8°F1.6°C 32.7°F0.4°C 92% Calm Calm -- 29.83 in1010.2 mb 0.00 in0.0 mm 0.00 in/hr0.0 mm/hr 0.00 in0.0 mm
08:35 AM 34.8°F1.6°C 32.7°F0.4°C 92% Calm Calm -- 29.83 in1010.2 mb 0.00 in0.0 mm 0.00 in/hr0.0 mm/hr 0.00 in0.0 mm
08:40 AM 35.2°F1.8°C 33.1°F0.6°C 92% Calm Calm -- 29.83 in1010.2 mb 0.00 in0.0 mm 0.00 in/hr0.0 mm/hr 0.00 in0.0 mm
08:45 AM 35.2°F1.8°C 33.1°F0.6°C 92% Calm Calm -- 29.84 in1010.5 mb 0.00 in0.0 mm 0.00 in/hr0.0 mm/hr 0.00 in0.0 mm
08:50 AM 35.2°F1.8°C 33.1°F0.6°C 92% Calm Calm -- 29.83 in1010.2 mb 0.00 in0.0 mm 0.00 in/hr0.0 mm/hr 0.00 in0.0 mm
08:55 AM 35.2°F1.8°C 33.1°F0.6°C 92% Calm Calm -- 29.83 in1010.2 mb 0.00 in0.0 mm 0.00 in/hr0.0 mm/hr 0.00 in0.0 mm
09:00 AM 35.2°F1.8°C 33.1°F0.6°C 92% Calm Calm -- 29.83 in1010.2 mb 0.00 in0.0 mm 0.00 in/hr0.0 mm/hr 0.00 in0.0 mm
09:05 AM 35.4°F1.9°C 33.3°F0.7°C 92% Calm Calm -- 29.83 in1010.2 mb 0.00 in0.0 mm 0.00 in/hr0.0 mm/hr 0.00 in0.0 mm
09:10 AM 35.4°F1.9°C 33.3°F0.7°C 92% Calm Calm -- 29.83 in1010.2 mb 0.00 in0.0 mm 0.00 in/hr0.0 mm/hr 0.00 in0.0 mm
09:15 AM 35.4°F1.9°C 33.3°F0.7°C 92% Calm Calm -- 29.84 in1010.5 mb 0.00 in0.0 mm 0.00 in/hr0.0 mm/hr 0.00 in0.0 mm
09:20 AM 35.2°F1.8°C 32.8°F0.4°C 91% Calm Calm -- 29.84 in1010.5 mb 0.00 in0.0 mm 0.00 in/hr0.0 mm/hr 0.00 in0.0 mm
09:25 AM 35.2°F1.8°C 32.8°F0.4°C 91% Calm Calm -- 29.84 in1010.5 mb 0.00 in0.0 mm 0.00 in/hr0.0 mm/hr 0.00 in0.0 mm
09:30 AM 35.2°F1.8°C 32.8°F0.4°C 91% Calm Calm -- 29.85 in1010.8 mb 0.00 in0.0 mm 0.00 in/hr0.0 mm/hr 0.00 in0.0 mm
09:35 AM 35.2°F1.8°C 32.8°F0.4°C 91% Calm Calm -- 29.85 in1010.8 mb 0.00 in0.0 mm 0.00 in/hr0.0 mm/hr 0.00 in0.0 mm
09:40 AM 35.4°F1.9°C 33.0°F0.6°C 91% Calm Calm -- 29.85 in1010.8 mb 0.00 in0.0 mm 0.00 in/hr0.0 mm/hr 0.00 in0.0 mm
09:45 AM 35.4°F1.9°C 33.0°F0.6°C 91% Calm Calm -- 29.85 in1010.8 mb 0.00 in0.0 mm 0.00 in/hr0.0 mm/hr 0.00 in0.0 mm
09:50 AM 35.4°F1.9°C 33.0°F0.6°C 91% Calm Calm -- 29.85 in1010.8 mb 0.00 in0.0 mm 0.00 in/hr0.0 mm/hr 0.00 in0.0 mm
09:55 AM 35.7°F2.1°C 33.4°F0.8°C 91% Calm Calm -- 29.84 in1010.5 mb 0.00 in0.0 mm 0.00 in/hr0.0 mm/hr 0.00 in0.0 mm
10:00 AM 35.7°F2.1°C 33.4°F0.8°C 91% Calm Calm -- 29.84 in1010.5 mb 0.00 in0.0 mm 0.00 in/hr0.0 mm/hr 0.00 in0.0 mm
10:05 AM 36.1°F2.3°C 33.7°F0.9°C 91% Calm Calm -- 29.84 in1010.5 mb 0.00 in0.0 mm 0.00 in/hr0.0 mm/hr 0.00 in0.0 mm
10:10 AM 36.3°F2.4°C 33.9°F1.1°C 91% Calm Calm -- 29.84 in1010.5 mb 0.00 in0.0 mm 0.00 in/hr0.0 mm/hr 0.00 in0.0 mm
10:15 AM 36.3°F2.4°C 33.9°F1.1°C 91% Calm Calm -- 29.84 in1010.5 mb 0.00 in0.0 mm 0.00 in/hr0.0 mm/hr 0.00 in0.0 mm
10:20 AM 36.3°F2.4°C 33.9°F1.1°C 91% Calm Calm -- 29.85 in1010.8 mb 0.00 in0.0 mm 0.00 in/hr0.0 mm/hr 0.00 in0.0 mm
10:25 AM 36.3°F2.4°C 33.9°F1.1°C 91% Calm Calm -- 29.85 in1010.8 mb 0.00 in0.0 mm 0.00 in/hr0.0 mm/hr 0.00 in0.0 mm
10:30 AM 36.5°F2.5°C 33.8°F1.0°C 90% Calm Calm -- 29.85 in1010.8 mb 0.00 in0.0 mm 0.00 in/hr0.0 mm/hr 0.00 in0.0 mm
10:35 AM 36.6°F2.6°C 34.3°F1.3°C 91% Calm Calm -- 29.85 in1010.8 mb 0.00 in0.0 mm 0.00 in/hr0.0 mm/hr 0.00 in0.0 mm
10:40 AM 36.8°F2.7°C 34.4°F1.3°C 91% Calm Calm -- 29.85 in1010.8 mb 0.00 in0.0 mm 0.00 in/hr0.0 mm/hr 0.00 in0.0 mm
10:45 AM 37.0°F2.8°C 34.6°F1.4°C 91% Calm Calm -- 29.85 in1010.8 mb 0.00 in0.0 mm 0.00 in/hr0.0 mm/hr 0.00 in0.0 mm
10:50 AM 37.0°F2.8°C 34.6°F1.4°C 91% Calm Calm -- 29.85 in1010.8 mb 0.00 in0.0 mm 0.00 in/hr0.0 mm/hr 0.00 in0.0 mm
10:55 AM 37.0°F2.8°C 34.3°F1.3°C 90% Calm Calm -- 29.86 in1011.2 mb 0.00 in0.0 mm 0.00 in/hr0.0 mm/hr 0.00 in0.0 mm
11:00 AM 37.0°F2.8°C 34.3°F1.3°C 90% Calm Calm -- 29.85 in1010.8 mb 0.00 in0.0 mm 0.00 in/hr0.0 mm/hr 0.00 in0.0 mm
11:05 AM 36.8°F2.7°C 34.2°F1.2°C 90% Calm Calm -- 29.85 in1010.8 mb 0.02 in0.5 mm 0.24 in/hr6.1 mm/hr 0.02 in0.5 mm
11:10 AM 36.6°F2.6°C 34.0°F1.1°C 90% Calm Calm -- 29.86 in1011.2 mb 0.02 in0.5 mm 0.00 in/hr0.0 mm/hr 0.02 in0.5 mm
11:15 AM 36.5°F2.5°C 33.8°F1.0°C 90% 2.0 mph S3.2 kmh S 2.0 mph3.2 kmh 29.86 in1011.2 mb 0.02 in0.5 mm 0.00 in/hr0.0 mm/hr 0.02 in0.5 mm
11:20 AM 36.5°F2.5°C 33.8°F1.0°C 90% 1.0 mph SE1.6 kmh SE 1.0 mph1.6 kmh 29.86 in1011.2 mb 0.02 in0.5 mm 0.00 in/hr0.0 mm/hr 0.02 in0.5 mm
11:25 AM 36.6°F2.6°C 34.0°F1.1°C 90% Calm Calm -- 29.85 in1010.8 mb 0.02 in0.5 mm 0.00 in/hr0.0 mm/hr 0.02 in0.5 mm
11:30 AM 36.8°F2.7°C 34.2°F1.2°C 90% Calm Calm -- 29.85 in1010.8 mb 0.02 in0.5 mm 0.00 in/hr0.0 mm/hr 0.02 in0.5 mm
11:35 AM 37.0°F2.8°C 34.3°F1.3°C 90% Calm Calm -- 29.86 in1011.2 mb 0.02 in0.5 mm 0.00 in/hr0.0 mm/hr 0.02 in0.5 mm
11:40 AM 37.2°F2.9°C 34.5°F1.4°C 90% Calm Calm -- 29.85 in1010.8 mb 0.02 in0.5 mm 0.00 in/hr0.0 mm/hr 0.02 in0.5 mm
11:45 AM 37.5°F3.1°C 34.9°F1.6°C 90% Calm Calm -- 29.85 in1010.8 mb 0.02 in0.5 mm 0.00 in/hr0.0 mm/hr 0.02 in0.5 mm
11:50 AM 37.5°F3.1°C 34.9°F1.6°C 90% Calm Calm -- 29.85 in1010.8 mb 0.02 in0.5 mm 0.00 in/hr0.0 mm/hr 0.02 in0.5 mm
11:55 AM 37.5°F3.1°C 34.9°F1.6°C 90% Calm Calm -- 29.84 in1010.5 mb 0.02 in0.5 mm 0.00 in/hr0.0 mm/hr 0.02 in0.5 mm
12:00 PM 37.5°F3.1°C 34.6°F1.4°C 89% Calm Calm -- 29.83 in1010.2 mb 0.02 in0.5 mm 0.00 in/hr0.0 mm/hr 0.02 in0.5 mm
12:05 PM 37.9°F3.3°C 34.9°F1.6°C 89% Calm Calm -- 29.84 in1010.5 mb 0.00 in0.0 mm 0.00 in/hr0.0 mm/hr 0.02 in0.5 mm
12:10 PM 37.9°F3.3°C 34.9°F1.6°C 89% Calm Calm -- 29.84 in1010.5 mb 0.00 in0.0 mm 0.00 in/hr0.0 mm/hr 0.02 in0.5 mm
12:15 PM 37.9°F3.3°C 34.9°F1.6°C 89% Calm Calm -- 29.84 in1010.5 mb 0.00 in0.0 mm 0.00 in/hr0.0 mm/hr 0.02 in0.5 mm
12:20 PM 37.7°F3.2°C 34.8°F1.6°C 89% Calm Calm -- 29.85 in1010.8 mb 0.00 in0.0 mm 0.00 in/hr0.0 mm/hr 0.02 in0.5 mm
12:25 PM 37.5°F3.1°C 34.6°F1.4°C 89% Calm Calm -- 29.84 in1010.5 mb 0.00 in0.0 mm 0.00 in/hr0.0 mm/hr 0.02 in0.5 mm
12:30 PM 37.2°F2.9°C 34.2°F1.2°C 89% Calm Calm -- 29.83 in1010.2 mb 0.02 in0.5 mm 0.24 in/hr6.1 mm/hr 0.04 in1.0 mm
12:35 PM 37.4°F3.0°C 34.4°F1.3°C 89% 1.0 mph E1.6 kmh E 1.0 mph1.6 kmh 29.84 in1010.5 mb 0.02 in0.5 mm 0.00 in/hr0.0 mm/hr 0.04 in1.0 mm
12:40 PM 37.2°F2.9°C 34.2°F1.2°C 89% Calm Calm -- 29.83 in1010.2 mb 0.02 in0.5 mm 0.00 in/hr0.0 mm/hr 0.04 in1.0 mm
12:45 PM 37.5°F3.1°C 34.6°F1.4°C 89% Calm Calm -- 29.83 in1010.2 mb 0.02 in0.5 mm 0.00 in/hr0.0 mm/hr 0.04 in1.0 mm
12:50 PM 37.9°F3.3°C 34.9°F1.6°C 89% Calm Calm -- 29.82 in1009.8 mb 0.02 in0.5 mm 0.00 in/hr0.0 mm/hr 0.04 in1.0 mm
12:55 PM 38.1°F3.4°C 35.1°F1.7°C 89% Calm Calm -- 29.83 in1010.2 mb 0.02 in0.5 mm 0.00 in/hr0.0 mm/hr 0.04 in1.0 mm
01:00 PM 37.9°F3.3°C 34.9°F1.6°C 89% Calm Calm -- 29.83 in1010.2 mb 0.02 in0.5 mm 0.00 in/hr0.0 mm/hr 0.04 in1.0 mm
01:05 PM 37.9°F3.3°C 34.9°F1.6°C 89% Calm Calm -- 29.82 in1009.8 mb 0.02 in0.5 mm 0.00 in/hr0.0 mm/hr 0.04 in1.0 mm
01:10 PM 37.9°F3.3°C 34.9°F1.6°C 89% Calm Calm -- 29.83 in1010.2 mb 0.02 in0.5 mm 0.00 in/hr0.0 mm/hr 0.04 in1.0 mm
01:15 PM 37.9°F3.3°C 34.9°F1.6°C 89% Calm Calm -- 29.83 in1010.2 mb 0.04 in1.0 mm 0.24 in/hr6.1 mm/hr 0.06 in1.5 mm
01:20 PM 37.9°F3.3°C 34.9°F1.6°C 89% Calm Calm -- 29.83 in1010.2 mb 0.04 in1.0 mm 0.00 in/hr0.0 mm/hr 0.06 in1.5 mm
01:25 PM 37.5°F3.1°C 34.6°F1.4°C 89% Calm Calm -- 29.83 in1010.2 mb 0.04 in1.0 mm 0.00 in/hr0.0 mm/hr 0.06 in1.5 mm
01:30 PM 37.5°F3.1°C 34.6°F1.4°C 89% Calm Calm -- 29.82 in1009.8 mb 0.02 in0.5 mm 0.00 in/hr0.0 mm/hr 0.06 in1.5 mm
01:35 PM 37.4°F3.0°C 34.4°F1.3°C 89% Calm Calm -- 29.81 in1009.5 mb 0.02 in0.5 mm 0.00 in/hr0.0 mm/hr 0.06 in1.5 mm
01:40 PM 37.4°F3.0°C 34.4°F1.3°C 89% Calm Calm -- 29.82 in1009.8 mb 0.02 in0.5 mm 0.00 in/hr0.0 mm/hr 0.06 in1.5 mm
01:45 PM 37.2°F2.9°C 34.2°F1.2°C 89% Calm Calm -- 29.82 in1009.8 mb 0.02 in0.5 mm 0.00 in/hr0.0 mm/hr 0.06 in1.5 mm
01:50 PM 37.2°F2.9°C 34.2°F1.2°C 89% Calm Calm -- 29.82 in1009.8 mb 0.04 in1.0 mm 0.24 in/hr6.1 mm/hr 0.08 in2.0 mm
01:55 PM 37.5°F3.1°C 34.6°F1.4°C 89% Calm Calm -- 29.82 in1009.8 mb 0.04 in1.0 mm 0.00 in/hr0.0 mm/hr 0.08 in2.0 mm
02:00 PM 37.4°F3.0°C 34.4°F1.3°C 89% Calm Calm -- 29.83 in1010.2 mb 0.04 in1.0 mm 0.00 in/hr0.0 mm/hr 0.08 in2.0 mm
02:05 PM 37.5°F3.1°C 34.6°F1.4°C 89% Calm Calm -- 29.83 in1010.2 mb 0.04 in1.0 mm 0.00 in/hr0.0 mm/hr 0.08 in2.0 mm
02:10 PM 37.4°F3.0°C 34.4°F1.3°C 89% Calm Calm -- 29.83 in1010.2 mb 0.04 in1.0 mm 0.00 in/hr0.0 mm/hr 0.08 in2.0 mm
02:15 PM 37.4°F3.0°C 34.4°F1.3°C 89% Calm Calm -- 29.84 in1010.5 mb 0.02 in0.5 mm 0.00 in/hr0.0 mm/hr 0.08 in2.0 mm
02:20 PM 37.2°F2.9°C 34.2°F1.2°C 89% Calm Calm -- 29.84 in1010.5 mb 0.04 in1.0 mm 0.24 in/hr6.1 mm/hr 0.10 in2.5 mm
02:25 PM 37.2°F2.9°C 34.2°F1.2°C 89% Calm Calm -- 29.84 in1010.5 mb 0.04 in1.0 mm 0.00 in/hr0.0 mm/hr 0.10 in2.5 mm
02:30 PM 37.0°F2.8°C 34.1°F1.2°C 89% Calm Calm -- 29.83 in1010.2 mb 0.04 in1.0 mm 0.00 in/hr0.0 mm/hr 0.10 in2.5 mm
02:35 PM 37.0°F2.8°C 34.1°F1.2°C 89% Calm Calm -- 29.84 in1010.5 mb 0.04 in1.0 mm 0.00 in/hr0.0 mm/hr 0.10 in2.5 mm
02:40 PM 37.2°F2.9°C 34.2°F1.2°C 89% Calm Calm -- 29.83 in1010.2 mb 0.06 in1.5 mm 0.24 in/hr6.1 mm/hr 0.12 in3.0 mm
02:45 PM 37.2°F2.9°C 34.2°F1.2°C 89% Calm Calm -- 29.84 in1010.5 mb 0.06 in1.5 mm 0.00 in/hr0.0 mm/hr 0.12 in3.0 mm
02:50 PM 37.4°F3.0°C 34.4°F1.3°C 89% Calm Calm -- 29.83 in1010.2 mb 0.04 in1.0 mm 0.00 in/hr0.0 mm/hr 0.12 in3.0 mm
02:55 PM 37.5°F3.1°C 34.6°F1.4°C 89% Calm Calm -- 29.84 in1010.5 mb 0.04 in1.0 mm 0.00 in/hr0.0 mm/hr 0.12 in3.0 mm
03:00 PM 37.5°F3.1°C 34.6°F1.4°C 89% Calm Calm -- 29.85 in1010.8 mb 0.04 in1.0 mm 0.00 in/hr0.0 mm/hr 0.12 in3.0 mm
03:05 PM 37.5°F3.1°C 34.6°F1.4°C 89% Calm Calm -- 29.85 in1010.8 mb 0.06 in1.5 mm 0.24 in/hr6.1 mm/hr 0.14 in3.6 mm
03:10 PM 37.4°F3.0°C 34.4°F1.3°C 89% Calm Calm -- 29.84 in1010.5 mb 0.06 in1.5 mm 0.00 in/hr0.0 mm/hr 0.14 in3.6 mm
03:15 PM 37.4°F3.0°C 34.4°F1.3°C 89% Calm Calm -- 29.84 in1010.5 mb 0.06 in1.5 mm 0.00 in/hr0.0 mm/hr 0.14 in3.6 mm
03:20 PM 37.4°F3.0°C 34.4°F1.3°C 89% Calm Calm -- 29.85 in1010.8 mb 0.04 in1.0 mm 0.00 in/hr0.0 mm/hr 0.14 in3.6 mm
03:25 PM 37.5°F3.1°C 34.6°F1.4°C 89% Calm Calm -- 29.84 in1010.5 mb 0.04 in1.0 mm 0.00 in/hr0.0 mm/hr 0.14 in3.6 mm
03:30 PM 37.5°F3.1°C 34.6°F1.4°C 89% Calm Calm -- 29.84 in1010.5 mb 0.04 in1.0 mm 0.00 in/hr0.0 mm/hr 0.14 in3.6 mm
03:35 PM 37.5°F3.1°C 34.6°F1.4°C 89% Calm Calm -- 29.84 in1010.5 mb 0.04 in1.0 mm 0.00 in/hr0.0 mm/hr 0.14 in3.6 mm
03:40 PM 37.5°F3.1°C 34.6°F1.4°C 89% Calm Calm -- 29.85 in1010.8 mb 0.02 in0.5 mm 0.00 in/hr0.0 mm/hr 0.14 in3.6 mm
03:45 PM 37.5°F3.1°C 34.6°F1.4°C 89% Calm Calm -- 29.84 in1010.5 mb 0.02 in0.5 mm 0.00 in/hr0.0 mm/hr 0.14 in3.6 mm
03:50 PM 37.5°F3.1°C 34.6°F1.4°C 89% Calm Calm -- 29.84 in1010.5 mb 0.02 in0.5 mm 0.00 in/hr0.0 mm/hr 0.14 in3.6 mm
03:55 PM 37.4°F3.0°C 34.4°F1.3°C 89% Calm Calm -- 29.85 in1010.8 mb 0.04 in1.0 mm 0.24 in/hr6.1 mm/hr 0.16 in4.1 mm
04:00 PM 37.2°F2.9°C 34.2°F1.2°C 89% Calm Calm -- 29.85 in1010.8 mb 0.04 in1.0 mm 0.00 in/hr0.0 mm/hr 0.16 in4.1 mm
04:05 PM 37.2°F2.9°C 34.2°F1.2°C 89% Calm Calm -- 29.85 in1010.8 mb 0.02 in0.5 mm 0.00 in/hr0.0 mm/hr 0.16 in4.1 mm
04:10 PM 37.2°F2.9°C 34.2°F1.2°C 89% Calm Calm -- 29.84 in1010.5 mb 0.02 in0.5 mm 0.00 in/hr0.0 mm/hr 0.16 in4.1 mm
04:15 PM 37.0°F2.8°C 34.1°F1.2°C 89% Calm Calm -- 29.85 in1010.8 mb 0.02 in0.5 mm 0.00 in/hr0.0 mm/hr 0.16 in4.1 mm
04:20 PM 36.8°F2.7°C 33.9°F1.1°C 89% Calm Calm -- 29.85 in1010.8 mb 0.02 in0.5 mm 0.00 in/hr0.0 mm/hr 0.16 in4.1 mm
04:25 PM 36.6°F2.6°C 33.7°F0.9°C 89% Calm Calm -- 29.85 in1010.8 mb 0.02 in0.5 mm 0.00 in/hr0.0 mm/hr 0.16 in4.1 mm
04:30 PM 36.6°F2.6°C 33.7°F0.9°C 89% Calm Calm -- 29.85 in1010.8 mb 0.02 in0.5 mm 0.00 in/hr0.0 mm/hr 0.16 in4.1 mm
04:35 PM 36.6°F2.6°C 33.7°F0.9°C 89% Calm Calm -- 29.86 in1011.2 mb 0.02 in0.5 mm 0.00 in/hr0.0 mm/hr 0.16 in4.1 mm
04:40 PM 36.5°F2.5°C 33.5°F0.8°C 89% Calm Calm -- 29.86 in1011.2 mb 0.04 in1.0 mm 0.24 in/hr6.1 mm/hr 0.18 in4.6 mm
04:45 PM 36.3°F2.4°C 33.3°F0.7°C 89% Calm Calm -- 29.85 in1010.8 mb 0.04 in1.0 mm 0.00 in/hr0.0 mm/hr 0.18 in4.6 mm
04:50 PM 36.3°F2.4°C 33.3°F0.7°C 89% Calm Calm -- 29.85 in1010.8 mb 0.04 in1.0 mm 0.00 in/hr0.0 mm/hr 0.18 in4.6 mm
04:55 PM 36.3°F2.4°C 33.3°F0.7°C 89% Calm Calm -- 29.86 in1011.2 mb 0.02 in0.5 mm 0.00 in/hr0.0 mm/hr 0.18 in4.6 mm
05:00 PM 36.3°F2.4°C 33.3°F0.7°C 89% Calm Calm -- 29.85 in1010.8 mb 0.02 in0.5 mm 0.00 in/hr0.0 mm/hr 0.18 in4.6 mm
05:05 PM 36.3°F2.4°C 33.3°F0.7°C 89% Calm Calm -- 29.85 in1010.8 mb 0.02 in0.5 mm 0.00 in/hr0.0 mm/hr 0.18 in4.6 mm
05:10 PM 36.3°F2.4°C 33.3°F0.7°C 89% Calm Calm -- 29.86 in1011.2 mb 0.02 in0.5 mm 0.00 in/hr0.0 mm/hr 0.18 in4.6 mm
05:15 PM 36.3°F2.4°C 33.3°F0.7°C 89% Calm Calm -- 29.86 in1011.2 mb 0.04 in1.0 mm 0.24 in/hr6.1 mm/hr 0.20 in5.1 mm
05:20 PM 36.1°F2.3°C 33.4°F0.8°C 90% Calm Calm -- 29.86 in1011.2 mb 0.04 in1.0 mm 0.00 in/hr0.0 mm/hr 0.20 in5.1 mm
05:25 PM 36.1°F2.3°C 33.4°F0.8°C 90% Calm Calm -- 29.86 in1011.2 mb 0.04 in1.0 mm 0.00 in/hr0.0 mm/hr 0.20 in5.1 mm
05:30 PM 36.1°F2.3°C 33.4°F0.8°C 90% Calm Calm -- 29.86 in1011.2 mb 0.04 in1.0 mm 0.00 in/hr0.0 mm/hr 0.20 in5.1 mm
05:40 PM 36.1°F2.3°C 33.4°F0.8°C 90% Calm Calm -- 29.87 in1011.5 mb 0.02 in0.5 mm 0.00 in/hr0.0 mm/hr 0.20 in5.1 mm
05:45 PM 36.1°F2.3°C 33.4°F0.8°C 90% Calm Calm -- 29.86 in1011.2 mb 0.02 in0.5 mm 0.00 in/hr0.0 mm/hr 0.20 in5.1 mm
05:50 PM 35.9°F2.2°C 33.3°F0.7°C 90% Calm Calm -- 29.86 in1011.2 mb 0.02 in0.5 mm 0.00 in/hr0.0 mm/hr 0.20 in5.1 mm
05:55 PM 35.9°F2.2°C 33.3°F0.7°C 90% Calm Calm -- 29.86 in1011.2 mb 0.02 in0.5 mm 0.00 in/hr0.0 mm/hr 0.20 in5.1 mm
06:00 PM 36.1°F2.3°C 33.4°F0.8°C 90% Calm Calm -- 29.87 in1011.5 mb 0.02 in0.5 mm 0.00 in/hr0.0 mm/hr 0.20 in5.1 mm
06:05 PM 36.1°F2.3°C 33.4°F0.8°C 90% Calm Calm -- 29.87 in1011.5 mb 0.04 in1.0 mm 0.24 in/hr6.1 mm/hr 0.22 in5.6 mm
06:10 PM 36.1°F2.3°C 33.4°F0.8°C 90% Calm Calm -- 29.86 in1011.2 mb 0.04 in1.0 mm 0.00 in/hr0.0 mm/hr 0.22 in5.6 mm
06:15 PM 36.1°F2.3°C 33.4°F0.8°C 90% Calm Calm -- 29.86 in1011.2 mb 0.02 in0.5 mm 0.00 in/hr0.0 mm/hr 0.22 in5.6 mm
06:20 PM 36.1°F2.3°C 33.4°F0.8°C 90% Calm Calm -- 29.86 in1011.2 mb 0.02 in0.5 mm 0.00 in/hr0.0 mm/hr 0.22 in5.6 mm
06:25 PM 36.1°F2.3°C 33.4°F0.8°C 90% Calm Calm -- 29.86 in1011.2 mb 0.02 in0.5 mm 0.00 in/hr0.0 mm/hr 0.22 in5.6 mm
06:30 PM 36.1°F2.3°C 33.4°F0.8°C 90% Calm Calm -- 29.86 in1011.2 mb 0.02 in0.5 mm 0.00 in/hr0.0 mm/hr 0.22 in5.6 mm
06:35 PM 35.9°F2.2°C 33.3°F0.7°C 90% Calm Calm -- 29.87 in1011.5 mb 0.02 in0.5 mm 0.00 in/hr0.0 mm/hr 0.22 in5.6 mm
06:40 PM 35.9°F2.2°C 33.3°F0.7°C 90% Calm Calm -- 29.86 in1011.2 mb 0.02 in0.5 mm 0.00 in/hr0.0 mm/hr 0.22 in5.6 mm
06:45 PM 35.9°F2.2°C 33.3°F0.7°C 90% Calm Calm -- 29.86 in1011.2 mb 0.04 in1.0 mm 0.24 in/hr6.1 mm/hr 0.24 in6.1 mm
06:50 PM 35.9°F2.2°C 33.3°F0.7°C 90% Calm Calm -- 29.86 in1011.2 mb 0.04 in1.0 mm 0.00 in/hr0.0 mm/hr 0.24 in6.1 mm
06:55 PM 35.9°F2.2°C 33.3°F0.7°C 90% Calm Calm -- 29.87 in1011.5 mb 0.04 in1.0 mm 0.00 in/hr0.0 mm/hr 0.24 in6.1 mm
07:00 PM 35.9°F2.2°C 33.3°F0.7°C 90% Calm Calm -- 29.87 in1011.5 mb 0.04 in1.0 mm 0.00 in/hr0.0 mm/hr 0.24 in6.1 mm
07:05 PM 35.9°F2.2°C 33.3°F0.7°C 90% Calm Calm -- 29.87 in1011.5 mb 0.02 in0.5 mm 0.00 in/hr0.0 mm/hr 0.24 in6.1 mm
07:10 PM 35.9°F2.2°C 33.3°F0.7°C 90% Calm Calm -- 29.87 in1011.5 mb 0.02 in0.5 mm 0.00 in/hr0.0 mm/hr 0.24 in6.1 mm
07:15 PM 35.9°F2.2°C 33.3°F0.7°C 90% Calm Calm -- 29.87 in1011.5 mb 0.02 in0.5 mm 0.00 in/hr0.0 mm/hr 0.24 in6.1 mm
07:20 PM 35.9°F2.2°C 33.3°F0.7°C 90% Calm Calm -- 29.87 in1011.5 mb 0.02 in0.5 mm 0.00 in/hr0.0 mm/hr 0.24 in6.1 mm
07:25 PM 35.9°F2.2°C 33.3°F0.7°C 90% Calm Calm -- 29.86 in1011.2 mb 0.02 in0.5 mm 0.00 in/hr0.0 mm/hr 0.24 in6.1 mm
07:30 PM 35.9°F2.2°C 33.3°F0.7°C 90% Calm Calm -- 29.87 in1011.5 mb 0.02 in0.5 mm 0.00 in/hr0.0 mm/hr 0.24 in6.1 mm
07:35 PM 35.9°F2.2°C 33.3°F0.7°C 90% Calm Calm -- 29.86 in1011.2 mb 0.02 in0.5 mm 0.00 in/hr0.0 mm/hr 0.24 in6.1 mm
07:40 PM 35.9°F2.2°C 33.3°F0.7°C 90% Calm Calm -- 29.86 in1011.2 mb 0.02 in0.5 mm 0.00 in/hr0.0 mm/hr 0.24 in6.1 mm
07:45 PM 35.7°F2.1°C 33.1°F0.6°C 90% Calm Calm -- 29.86 in1011.2 mb 0.00 in0.0 mm 0.00 in/hr0.0 mm/hr 0.24 in6.1 mm
07:50 PM 35.9°F2.2°C 33.3°F0.7°C 90% Calm Calm -- 29.87 in1011.5 mb 0.00 in0.0 mm 0.00 in/hr0.0 mm/hr 0.24 in6.1 mm
07:55 PM 35.7°F2.1°C 33.1°F0.6°C 90% Calm Calm -- 29.87 in1011.5 mb 0.00 in0.0 mm 0.00 in/hr0.0 mm/hr 0.24 in6.1 mm
08:00 PM 35.7°F2.1°C 33.1°F0.6°C 90% Calm Calm -- 29.86 in1011.2 mb 0.00 in0.0 mm 0.00 in/hr0.0 mm/hr 0.24 in6.1 mm
08:05 PM 35.7°F2.1°C 33.1°F0.6°C 90% Calm Calm -- 29.86 in1011.2 mb 0.00 in0.0 mm 0.00 in/hr0.0 mm/hr 0.24 in6.1 mm
08:10 PM 35.7°F2.1°C 33.1°F0.6°C 90% Calm Calm -- 29.86 in1011.2 mb 0.02 in0.5 mm 0.24 in/hr6.1 mm/hr 0.26 in6.6 mm
08:15 PM 35.7°F2.1°C 33.1°F0.6°C 90% Calm Calm -- 29.87 in1011.5 mb 0.02 in0.5 mm 0.00 in/hr0.0 mm/hr 0.26 in6.6 mm
08:20 PM 35.7°F2.1°C 33.1°F0.6°C 90% Calm Calm -- 29.87 in1011.5 mb 0.02 in0.5 mm 0.00 in/hr0.0 mm/hr 0.26 in6.6 mm
08:25 PM 35.7°F2.1°C 33.1°F0.6°C 90% Calm Calm -- 29.87 in1011.5 mb 0.02 in0.5 mm 0.00 in/hr0.0 mm/hr 0.26 in6.6 mm
08:30 PM 35.7°F2.1°C 33.1°F0.6°C 90% Calm Calm -- 29.88 in1011.9 mb 0.02 in0.5 mm 0.00 in/hr0.0 mm/hr 0.26 in6.6 mm
08:35 PM 35.7°F2.1°C 33.1°F0.6°C 90% Calm Calm -- 29.86 in1011.2 mb 0.02 in0.5 mm 0.00 in/hr0.0 mm/hr 0.26 in6.6 mm
08:40 PM 35.7°F2.1°C 33.1°F0.6°C 90% Calm Calm -- 29.86 in1011.2 mb 0.02 in0.5 mm 0.00 in/hr0.0 mm/hr 0.26 in6.6 mm
08:45 PM 35.7°F2.1°C 33.1°F0.6°C 90% Calm Calm -- 29.86 in1011.2 mb 0.02 in0.5 mm 0.00 in/hr0.0 mm/hr 0.26 in6.6 mm
08:50 PM 35.7°F2.1°C 33.1°F0.6°C 90% Calm Calm -- 29.86 in1011.2 mb 0.02 in0.5 mm 0.00 in/hr0.0 mm/hr 0.26 in6.6 mm
08:55 PM 35.7°F2.1°C 33.1°F0.6°C 90% Calm Calm -- 29.86 in1011.2 mb 0.02 in0.5 mm 0.00 in/hr0.0 mm/hr 0.26 in6.6 mm
09:00 PM 35.7°F2.1°C 33.1°F0.6°C 90% Calm Calm -- 29.86 in1011.2 mb 0.02 in0.5 mm 0.00 in/hr0.0 mm/hr 0.26 in6.6 mm
09:05 PM 35.7°F2.1°C 33.1°F0.6°C 90% Calm Calm -- 29.86 in1011.2 mb 0.02 in0.5 mm 0.00 in/hr0.0 mm/hr 0.26 in6.6 mm
09:10 PM 35.7°F2.1°C 33.1°F0.6°C 90% Calm Calm -- 29.86 in1011.2 mb 0.00 in0.0 mm 0.00 in/hr0.0 mm/hr 0.26 in6.6 mm
09:15 PM 35.7°F2.1°C 33.1°F0.6°C 90% Calm Calm -- 29.86 in1011.2 mb 0.00 in0.0 mm 0.00 in/hr0.0 mm/hr 0.26 in6.6 mm
09:20 PM 35.7°F2.1°C 33.1°F0.6°C 90% Calm Calm -- 29.86 in1011.2 mb 0.00 in0.0 mm 0.00 in/hr0.0 mm/hr 0.26 in6.6 mm
09:25 PM 35.7°F2.1°C 33.1°F0.6°C 90% Calm Calm -- 29.86 in1011.2 mb 0.00 in0.0 mm 0.00 in/hr0.0 mm/hr 0.26 in6.6 mm
09:30 PM 35.7°F2.1°C 33.1°F0.6°C 90% Calm Calm -- 29.87 in1011.5 mb 0.00 in0.0 mm 0.00 in/hr0.0 mm/hr 0.26 in6.6 mm
09:35 PM 35.7°F2.1°C 33.1°F0.6°C 90% Calm Calm -- 29.87 in1011.5 mb 0.00 in0.0 mm 0.00 in/hr0.0 mm/hr 0.26 in6.6 mm
09:40 PM 35.7°F2.1°C 33.1°F0.6°C 90% Calm Calm -- 29.86 in1011.2 mb 0.00 in0.0 mm 0.00 in/hr0.0 mm/hr 0.26 in6.6 mm
09:45 PM 35.6°F2.0°C 32.9°F0.5°C 90% Calm Calm -- 29.86 in1011.2 mb 0.02 in0.5 mm 0.24 in/hr6.1 mm/hr 0.29 in7.4 mm
09:50 PM 35.6°F2.0°C 32.9°F0.5°C 90% Calm Calm -- 29.87 in1011.5 mb 0.02 in0.5 mm 0.00 in/hr0.0 mm/hr 0.29 in7.4 mm
09:55 PM 35.4°F1.9°C 32.7°F0.4°C 90% Calm Calm -- 29.86 in1011.2 mb 0.02 in0.5 mm 0.00 in/hr0.0 mm/hr 0.29 in7.4 mm
10:00 PM 35.4°F1.9°C 32.7°F0.4°C 90% Calm Calm -- 29.86 in1011.2 mb 0.02 in0.5 mm 0.00 in/hr0.0 mm/hr 0.29 in7.4 mm
10:05 PM 35.4°F1.9°C 32.7°F0.4°C 90% Calm Calm -- 29.86 in1011.2 mb 0.02 in0.5 mm 0.00 in/hr0.0 mm/hr 0.29 in7.4 mm
10:10 PM 35.4°F1.9°C 32.7°F0.4°C 90% Calm Calm -- 29.86 in1011.2 mb 0.02 in0.5 mm 0.00 in/hr0.0 mm/hr 0.29 in7.4 mm
10:15 PM 35.4°F1.9°C 32.7°F0.4°C 90% Calm Calm -- 29.86 in1011.2 mb 0.02 in0.5 mm 0.00 in/hr0.0 mm/hr 0.29 in7.4 mm
10:20 PM 35.4°F1.9°C 32.7°F0.4°C 90% Calm Calm -- 29.86 in1011.2 mb 0.02 in0.5 mm 0.00 in/hr0.0 mm/hr 0.29 in7.4 mm
10:25 PM 35.4°F1.9°C 32.7°F0.4°C 90% Calm Calm -- 29.86 in1011.2 mb 0.02 in0.5 mm 0.00 in/hr0.0 mm/hr 0.29 in7.4 mm
10:30 PM 35.4°F1.9°C 32.7°F0.4°C 90% Calm Calm -- 29.86 in1011.2 mb 0.02 in0.5 mm 0.00 in/hr0.0 mm/hr 0.29 in7.4 mm
10:35 PM 35.4°F1.9°C 32.7°F0.4°C 90% Calm Calm -- 29.86 in1011.2 mb 0.02 in0.5 mm 0.00 in/hr0.0 mm/hr 0.29 in7.4 mm
10:40 PM 35.4°F1.9°C 32.7°F0.4°C 90% Calm Calm -- 29.86 in1011.2 mb 0.02 in0.5 mm 0.00 in/hr0.0 mm/hr 0.29 in7.4 mm
10:45 PM 35.4°F1.9°C 32.7°F0.4°C 90% Calm Calm -- 29.86 in1011.2 mb 0.00 in0.0 mm 0.00 in/hr0.0 mm/hr 0.29 in7.4 mm
10:50 PM 35.4°F1.9°C 32.7°F0.4°C 90% Calm Calm -- 29.86 in1011.2 mb 0.00 in0.0 mm 0.00 in/hr0.0 mm/hr 0.29 in7.4 mm
10:55 PM 35.4°F1.9°C 32.7°F0.4°C 90% Calm Calm -- 29.85 in1010.8 mb 0.00 in0.0 mm 0.00 in/hr0.0 mm/hr 0.29 in7.4 mm
11:00 PM 35.4°F1.9°C 32.7°F0.4°C 90% Calm Calm -- 29.85 in1010.8 mb 0.00 in0.0 mm 0.00 in/hr0.0 mm/hr 0.29 in7.4 mm
11:05 PM 35.2°F1.8°C 32.6°F0.3°C 90% Calm Calm -- 29.85 in1010.8 mb 0.00 in0.0 mm 0.00 in/hr0.0 mm/hr 0.29 in7.4 mm
11:10 PM 35.2°F1.8°C 32.6°F0.3°C 90% Calm Calm -- 29.85 in1010.8 mb 0.00 in0.0 mm 0.00 in/hr0.0 mm/hr 0.29 in7.4 mm
11:15 PM 35.2°F1.8°C 32.6°F0.3°C 90% Calm Calm -- 29.85 in1010.8 mb 0.00 in0.0 mm 0.00 in/hr0.0 mm/hr 0.29 in7.4 mm
11:20 PM 35.2°F1.8°C 32.6°F0.3°C 90% Calm Calm -- 29.85 in1010.8 mb 0.00 in0.0 mm 0.00 in/hr0.0 mm/hr 0.29 in7.4 mm
11:25 PM 35.2°F1.8°C 32.6°F0.3°C 90% Calm Calm -- 29.86 in1011.2 mb 0.00 in0.0 mm 0.00 in/hr0.0 mm/hr 0.29 in7.4 mm
11:30 PM 35.2°F1.8°C 32.6°F0.3°C 90% Calm Calm -- 29.86 in1011.2 mb 0.00 in0.0 mm 0.00 in/hr0.0 mm/hr 0.29 in7.4 mm
11:35 PM 35.2°F1.8°C 32.6°F0.3°C 90% Calm Calm -- 29.86 in1011.2 mb 0.00 in0.0 mm 0.00 in/hr0.0 mm/hr 0.29 in7.4 mm
11:40 PM 35.2°F1.8°C 32.6°F0.3°C 90% Calm Calm -- 29.85 in1010.8 mb 0.00 in0.0 mm 0.00 in/hr0.0 mm/hr 0.29 in7.4 mm
11:45 PM 35.2°F1.8°C 32.6°F0.3°C 90% Calm Calm -- 29.86 in1011.2 mb 0.00 in0.0 mm 0.00 in/hr0.0 mm/hr 0.29 in7.4 mm
11:50 PM 35.0°F1.7°C 32.4°F0.2°C 90% Calm Calm -- 29.85 in1010.8 mb 0.00 in0.0 mm 0.00 in/hr0.0 mm/hr 0.29 in7.4 mm
11:55 PM 34.8°F1.6°C 32.2°F0.1°C 90% Calm Calm -- 29.86 in1011.2 mb 0.00 in0.0 mm 0.00 in/hr0.0 mm/hr 0.29 in7.4 mm